Time;durP1;ratioP1;P1;durP2;ratioP2;P2;SDS_P1;SDS_P2;PMS_P1;PMS_P2;Temp;Humidity;BMP_temperature;BMP_pressure;BME280_temperature;BME280_humidity;BME280_pressure;Samples;Min_cycle;Max_cycle;Signal;HPM_P1;HPM_P2
2022/06/28 00:00:22;;;;;;;10.40;1.92;;;16.10;99.90;;;;;;4974323;28;20174;-80
2022/06/28 00:02:48;;;;;;;4.57;1.42;;;16.10;99.90;;;;;;4974225;28;20183;-80
2022/06/28 00:05:14;;;;;;;3.70;1.42;;;16.10;99.90;;;;;;4973680;28;20178;-80
2022/06/28 00:07:41;;;;;;;2.25;1.30;;;16.20;99.90;;;;;;4973555;28;20897;-83
2022/06/28 00:10:08;;;;;;;5.45;1.08;;;16.30;99.90;;;;;;4973821;28;20208;-80
2022/06/28 00:12:34;;;;;;;6.40;1.58;;;16.20;99.90;;;;;;4956511;28;20207;-79
2022/06/28 00:17:44;;;;;;;6.13;1.10;;;16.20;99.90;;;;;;4974073;28;20282;-80
2022/06/28 00:20:11;;;;;;;3.60;1.25;;;16.30;99.90;;;;;;4973866;28;20183;-87
2022/06/28 00:22:37;;;;;;;2.65;1.27;;;16.20;99.90;;;;;;4973819;28;20169;-80
2022/06/28 00:25:03;;;;;;;2.53;1.05;;;16.50;99.90;;;;;;4973443;28;20165;-80
2022/06/28 00:27:29;;;;;;;1.35;0.90;;;16.60;99.90;;;;;;4973673;28;20178;-80
2022/06/28 00:29:54;;;;;;;6.35;1.35;;;16.60;99.90;;;;;;4973272;28;20648;-80
2022/06/28 00:32:20;;;;;;;2.15;0.90;;;16.50;99.90;;;;;;4973332;28;20180;-84
2022/06/28 00:34:47;;;;;;;4.78;0.95;;;16.60;99.90;;;;;;4956560;28;20258;-80
2022/06/28 00:37:13;;;;;;;4.70;1.10;;;16.70;99.90;;;;;;4973420;28;20198;-85
2022/06/28 00:39:39;;;;;;;6.60;1.00;;;16.80;99.90;;;;;;4956542;28;20201;-80
2022/06/28 00:42:07;;;;;;;2.40;1.15;;;16.80;99.90;;;;;;4973770;28;20170;-80
2022/06/28 00:44:32;;;;;;;2.88;0.80;;;16.80;99.90;;;;;;4973613;28;20648;-80
2022/06/28 00:46:58;;;;;;;7.55;1.10;;;16.60;99.90;;;;;;4977693;28;20234;-80
2022/06/28 00:49:25;;;;;;;4.57;1.40;;;16.50;99.90;;;;;;4967179;28;20204;-81
2022/06/28 00:51:50;;;;;;;5.03;1.30;;;16.60;99.90;;;;;;4996752;28;20166;-82
2022/06/28 00:54:16;;;;;;;9.43;1.20;;;16.80;99.90;;;;;;4985596;28;20207;-79
2022/06/28 00:56:42;;;;;;;5.38;1.23;;;17.10;99.90;;;;;;4974052;28;20210;-83
2022/06/28 00:59:07;;;;;;;6.13;1.30;;;16.90;99.90;;;;;;4974091;28;20189;-80
2022/06/28 01:01:33;;;;;;;4.18;1.10;;;16.80;99.90;;;;;;4974673;28;20170;-78
2022/06/28 01:03:59;;;;;;;15.38;1.40;;;16.70;99.90;;;;;;4977924;28;20177;-80
2022/06/28 01:06:25;;;;;;;1.77;0.93;;;16.60;99.90;;;;;;4977036;28;20216;-80
2022/06/28 01:08:50;;;;;;;1.70;0.70;;;16.60;99.90;;;;;;4977156;28;20225;-79
2022/06/28 01:11:20;;;;;;;4.85;1.30;;;16.80;99.90;;;;;;4977772;28;20178;-82
2022/06/28 01:13:58;;;;;;;1.25;1.15;;;17.00;99.90;;;;;;4960193;28;20618;-80
2022/06/28 01:16:24;;;;;;;7.88;1.00;;;16.70;99.90;;;;;;4977301;28;20231;-82
2022/06/28 01:18:49;;;;;;;2.53;0.85;;;16.70;99.90;;;;;;4977077;28;20190;-79
2022/06/28 01:21:17;;;;;;;6.82;1.10;;;16.60;99.90;;;;;;4976760;28;20615;-86
2022/06/28 01:23:44;;;;;;;2.55;0.70;;;16.40;99.90;;;;;;4977100;28;20196;-79
2022/06/28 01:26:11;;;;;;;1.90;0.90;;;16.40;99.90;;;;;;4977629;28;20170;-80
2022/06/28 01:28:37;;;;;;;5.38;1.00;;;16.50;99.90;;;;;;4959633;28;20198;-80
2022/06/28 01:31:04;;;;;;;2.38;1.05;;;16.40;99.90;;;;;;4980947;28;20170;-79
2022/06/28 01:33:30;;;;;;;1.77;0.90;;;16.40;99.90;;;;;;4960962;28;20608;-79
2022/06/28 01:35:55;;;;;;;18.70;1.10;;;16.40;99.90;;;;;;4979298;28;20237;-79
2022/06/28 01:38:22;;;;;;;4.97;1.60;;;16.30;99.90;;;;;;4977826;28;20269;-79
2022/06/28 01:40:49;;;;;;;6.45;1.58;;;16.30;99.90;;;;;;4985077;28;20181;-81
2022/06/28 01:43:16;;;;;;;2.92;1.13;;;16.40;99.90;;;;;;4997762;28;20158;-85
2022/06/28 01:45:42;;;;;;;3.85;1.20;;;16.40;99.90;;;;;;4981896;28;20162;-80
2022/06/28 01:48:08;;;;;;;1.77;0.90;;;16.50;99.90;;;;;;4979817;28;20200;-86
2022/06/28 01:50:34;;;;;;;4.85;0.90;;;16.40;99.90;;;;;;4979481;28;20197;-87
2022/06/28 01:53:00;;;;;;;4.05;0.90;;;16.20;99.90;;;;;;4997184;28;20182;-80
2022/06/28 01:55:26;;;;;;;2.95;0.73;;;16.20;99.90;;;;;;4996485;28;20189;-79
2022/06/28 01:57:51;;;;;;;4.25;1.00;;;16.10;99.90;;;;;;4984448;28;20273;-80
2022/06/28 02:00:17;;;;;;;4.00;0.80;;;16.10;99.90;;;;;;4978883;28;20166;-79
2022/06/28 02:02:43;;;;;;;8.75;1.40;;;16.10;99.90;;;;;;4978934;28;20170;-80
2022/06/28 02:05:09;;;;;;;5.03;0.80;;;16.10;99.90;;;;;;4976537;28;20174;-80
2022/06/28 02:07:35;;;;;;;3.70;0.80;;;16.10;99.90;;;;;;4976159;28;20182;-80
2022/06/28 02:10:00;;;;;;;5.15;0.70;;;16.00;99.90;;;;;;4975179;28;20639;-79
2022/06/28 02:12:28;;;;;;;1.95;0.90;;;15.90;99.90;;;;;;4975252;28;20176;-79
2022/06/28 02:14:56;;;;;;;4.38;1.10;;;15.80;99.90;;;;;;4975401;28;20158;-79
2022/06/28 02:17:22;;;;;;;3.17;0.80;;;16.00;99.90;;;;;;4957894;28;20245;-79
2022/06/28 02:19:48;;;;;;;3.88;0.90;;;16.10;99.90;;;;;;4975810;28;20197;-90
2022/06/28 02:22:14;;;;;;;3.60;1.17;;;16.30;99.90;;;;;;4975874;28;20212;-87
2022/06/28 02:24:40;;;;;;;2.90;1.10;;;16.10;99.90;;;;;;4976074;28;20198;-79
2022/06/28 02:27:06;;;;;;;2.10;0.85;;;15.90;99.90;;;;;;4976268;28;20173;-91
2022/06/28 02:29:31;;;;;;;5.75;1.20;;;15.90;99.90;;;;;;4975708;28;20190;-79
2022/06/28 02:31:57;;;;;;;4.95;0.80;;;15.90;99.90;;;;;;4976191;28;20594;-90
2022/06/28 02:42:35;;;;;;;7.55;1.15;;;16.10;99.90;;;;;;4975539;28;20212;-79
2022/06/28 02:45:00;;;;;;;6.25;1.20;;;16.00;99.90;;;;;;4975849;28;20622;-81
2022/06/28 02:47:26;;;;;;;3.88;0.90;;;16.00;99.90;;;;;;4975820;28;20231;-88
2022/06/28 02:49:52;;;;;;;9.88;1.30;;;15.90;99.90;;;;;;4975804;28;20231;-80
2022/06/28 02:52:17;;;;;;;2.25;1.02;;;15.70;99.90;;;;;;4975723;28;20173;-91
2022/06/28 02:54:43;;;;;;;7.22;1.30;;;15.60;99.90;;;;;;4975827;28;20257;-88
2022/06/28 02:57:08;;;;;;;5.63;1.50;;;15.60;99.90;;;;;;4975124;28;20210;-80
2022/06/28 02:59:34;;;;;;;8.48;1.30;;;15.50;99.90;;;;;;4975101;28;20252;-80
2022/06/28 03:01:59;;;;;;;1.92;0.95;;;15.40;99.90;;;;;;4959045;28;20222;-84
2022/06/28 03:04:25;;;;;;;3.47;1.20;;;15.50;99.90;;;;;;4975705;28;20261;-83
2022/06/28 03:06:51;;;;;;;4.78;1.08;;;15.40;99.90;;;;;;4974773;28;20173;-86
2022/06/28 03:09:16;;;;;;;3.20;1.10;;;15.40;99.90;;;;;;4973850;28;20558;-86
2022/06/28 03:11:42;;;;;;;5.20;1.05;;;15.30;99.90;;;;;;4974966;28;20170;-81
2022/06/28 03:14:08;;;;;;;4.47;0.95;;;15.50;99.90;;;;;;4978229;28;20165;-80
2022/06/28 03:16:34;;;;;;;9.60;1.30;;;15.40;99.90;;;;;;4985187;28;20182;-81
2022/06/28 03:18:59;;;;;;;3.50;1.17;;;15.30;99.90;;;;;;4980720;28;20224;-81
2022/06/28 03:21:25;;;;;;;1.92;0.90;;;15.40;99.90;;;;;;4985856;28;20194;-80
2022/06/28 03:23:50;;;;;;;4.57;1.05;;;15.50;99.90;;;;;;4974456;28;20588;-79
2022/06/28 03:26:16;;;;;;;4.15;1.17;;;15.40;99.90;;;;;;4974805;28;20217;-80
2022/06/28 03:28:42;;;;;;;7.28;1.00;;;15.30;99.90;;;;;;4957200;28;20562;-79
2022/06/28 03:31:08;;;;;;;4.53;1.30;;;15.30;99.90;;;;;;4974400;28;20166;-80
2022/06/28 03:33:33;;;;;;;12.00;1.95;;;15.30;99.90;;;;;;4974282;28;20173;-80
2022/06/28 03:35:59;;;;;;;6.38;1.20;;;15.40;99.90;;;;;;4973903;28;20824;-80
2022/06/28 03:38:25;;;;;;;3.05;1.45;;;15.40;99.90;;;;;;4973848;28;20547;-79
2022/06/28 03:40:50;;;;;;;4.78;1.25;;;15.30;99.90;;;;;;4957086;28;20634;-79
2022/06/28 03:43:16;;;;;;;19.65;1.48;;;15.20;99.90;;;;;;4974154;28;20205;-79
2022/06/28 03:45:42;;;;;;;11.18;1.58;;;15.20;99.90;;;;;;4974488;28;20631;-82
2022/06/28 03:48:07;;;;;;;15.73;1.48;;;15.30;99.90;;;;;;4957000;28;20198;-79
2022/06/28 03:50:33;;;;;;;9.52;1.30;;;15.30;99.90;;;;;;4974186;28;20168;-80
2022/06/28 03:52:59;;;;;;;16.67;1.33;;;15.30;99.90;;;;;;4957029;28;20176;-80
2022/06/28 03:55:24;;;;;;;1.85;0.82;;;15.30;99.90;;;;;;4974287;28;20254;-80
2022/06/28 03:57:50;;;;;;;12.65;1.40;;;15.20;99.90;;;;;;4957034;28;20212;-79
2022/06/28 04:00:16;;;;;;;8.25;0.98;;;15.30;99.90;;;;;;4974153;28;20165;-79
2022/06/28 04:02:42;;;;;;;7.13;1.45;;;15.40;99.90;;;;;;4957169;28;20638;-80
2022/06/28 04:05:08;;;;;;;2.95;0.90;;;15.60;99.90;;;;;;4973954;28;20670;-79
2022/06/28 04:07:34;;;;;;;3.80;1.25;;;15.90;99.90;;;;;;4973582;28;20170;-86
2022/06/28 04:09:59;;;;;;;20.20;1.42;;;16.30;99.90;;;;;;4974139;28;20635;-81
2022/06/28 04:12:25;;;;;;;6.00;0.77;;;16.70;99.90;;;;;;4974188;28;20178;-80
2022/06/28 04:14:51;;;;;;;5.97;1.10;;;17.20;99.90;;;;;;4974293;28;20630;-79
2022/06/28 04:17:16;;;;;;;2.33;1.02;;;17.70;99.90;;;;;;4956732;28;20245;-80
2022/06/28 04:19:42;;;;;;;1.40;1.05;;;18.00;99.90;;;;;;4974537;28;20181;-91
2022/06/28 04:22:07;;;;;;;9.77;1.80;;;18.20;99.90;;;;;;4973945;28;20181;-80
2022/06/28 04:24:33;;;;;;;2.83;1.30;;;18.30;99.90;;;;;;4973675;28;20626;-79
2022/06/28 04:26:59;;;;;;;5.25;1.40;;;18.20;99.90;;;;;;4973725;28;20218;-79
2022/06/28 04:29:25;;;;;;;4.20;1.67;;;18.20;99.90;;;;;;4974461;28;20190;-88
2022/06/28 04:31:50;;;;;;;9.55;1.60;;;17.90;99.90;;;;;;4956566;28;20261;-80
2022/06/28 04:34:16;;;;;;;13.27;1.35;;;17.80;99.90;;;;;;4957117;28;20638;-87
2022/06/28 04:36:42;;;;;;;5.72;2.20;;;17.80;99.90;;;;;;4976639;28;20257;-80
2022/06/28 04:39:07;;;;;;;24.50;2.00;;;17.50;99.90;;;;;;4960028;28;20194;-80
2022/06/28 04:41:33;;;;;;;21.67;1.90;;;17.60;99.90;;;;;;4977421;28;20173;-80
2022/06/28 04:43:59;;;;;;;5.60;1.33;;;17.70;99.90;;;;;;4978395;28;20166;-80
2022/06/28 04:46:24;;;;;;;3.83;1.38;;;17.70;99.90;;;;;;4981939;28;20657;-83
2022/06/28 04:48:50;;;;;;;6.80;1.27;;;17.60;99.90;;;;;;4963243;28;20244;-81
2022/06/28 04:51:16;;;;;;;11.80;1.40;;;17.70;99.90;;;;;;4981138;28;20537;-81
2022/06/28 04:53:44;;;;;;;2.75;1.45;;;17.80;99.90;;;;;;4962330;28;20174;-80
2022/06/28 04:56:11;;;;;;;15.70;1.60;;;17.70;99.90;;;;;;4977494;28;20701;-80
2022/06/28 04:58:37;;;;;;;2.55;0.90;;;17.80;99.90;;;;;;4960143;28;20186;-90
2022/06/28 05:01:03;;;;;;;6.20;1.63;;;17.80;99.90;;;;;;4982755;28;20170;-80
2022/06/28 05:03:30;;;;;;;8.48;1.55;;;17.70;99.90;;;;;;4981131;28;20170;-80
2022/06/28 05:05:56;;;;;;;7.15;1.38;;;17.70;99.90;;;;;;4977155;28;20533;-86
2022/06/28 05:08:21;;;;;;;9.60;1.30;;;17.70;99.90;;;;;;4977633;28;20540;-81
2022/06/28 05:10:47;;;;;;;5.22;1.60;;;17.50;99.90;;;;;;4979298;28;20192;-80
2022/06/28 05:13:13;;;;;;;2.80;1.15;;;17.50;99.90;;;;;;4983164;28;20249;-80
2022/06/28 05:15:45;;;;;;;5.55;1.13;;;17.70;99.90;;;;;;4983984;28;20197;-79
2022/06/28 05:18:11;;;;;;;9.07;1.35;;;17.80;99.90;;;;;;4964818;28;20201;-81
2022/06/28 05:20:36;;;;;;;6.70;1.35;;;18.00;99.90;;;;;;4979133;28;20245;-79
2022/06/28 05:23:02;;;;;;;13.60;1.48;;;18.20;99.90;;;;;;4984494;28;20170;-84
2022/06/28 05:25:27;;;;;;;10.40;1.83;;;17.90;99.90;;;;;;4965393;28;20212;-82
2022/06/28 05:27:53;;;;;;;7.85;1.80;;;17.90;99.90;;;;;;4978332;28;20194;-83
2022/06/28 05:30:19;;;;;;;7.57;2.10;;;17.90;99.90;;;;;;4963354;28;20240;-84
2022/06/28 05:32:44;;;;;;;10.43;1.77;;;18.10;99.90;;;;;;4965997;28;20181;-82
2022/06/28 05:35:10;;;;;;;9.65;1.60;;;18.10;99.90;;;;;;4962850;28;20201;-85
2022/06/28 05:37:36;;;;;;;4.25;1.10;;;18.10;99.90;;;;;;4960928;28;20185;-83
2022/06/28 05:40:02;;;;;;;7.43;0.80;;;18.20;99.90;;;;;;4963882;28;20634;-84
2022/06/28 05:42:28;;;;;;;3.75;1.05;;;18.30;99.90;;;;;;4961795;28;20166;-84
2022/06/28 05:45:03;;;;;;;21.77;1.63;;;18.30;99.90;;;;;;4965178;28;20197;-84
2022/06/28 05:47:28;;;;;;;7.93;1.50;;;18.30;99.90;;;;;;4959090;28;20241;-83
2022/06/28 05:50:20;;;;;;;7.75;1.38;;;18.20;99.90;;;;;;4979280;28;20181;-81
2022/06/28 05:52:47;;;;;;;8.35;1.48;;;18.20;99.90;;;;;;4979681;28;20229;-83
2022/06/28 05:55:14;;;;;;;6.28;1.58;;;18.40;99.90;;;;;;4986943;28;20212;-85
2022/06/28 05:57:40;;;;;;;5.68;0.90;;;18.50;99.90;;;;;;4963363;28;20181;-83
2022/06/28 06:00:06;;;;;;;10.07;1.40;;;18.30;99.90;;;;;;4961610;28;20718;-79
2022/06/28 06:02:35;;;;;;;6.60;1.10;;;18.40;99.90;;;;;;4982075;28;20162;-81
2022/06/28 06:05:02;;;;;;;12.90;1.50;;;18.40;99.90;;;;;;4991320;28;20549;-78
2022/06/28 06:07:29;;;;;;;6.85;0.90;;;18.60;99.90;;;;;;4976212;28;20162;-77
2022/06/28 06:09:56;;;;;;;3.58;1.33;;;18.60;99.90;;;;;;4976509;28;20224;-79
2022/06/28 06:12:22;;;;;;;5.03;1.33;;;18.70;99.90;;;;;;4976710;28;20234;-79
2022/06/28 06:14:48;;;;;;;2.97;1.02;;;18.70;99.90;;;;;;4975604;28;20238;-78
2022/06/28 06:17:14;;;;;;;7.18;1.10;;;18.60;99.90;;;;;;4975911;28;20213;-81
2022/06/28 06:19:40;;;;;;;2.95;1.15;;;18.70;99.90;;;;;;4976005;28;20204;-78
2022/06/28 06:22:05;;;;;;;1.30;0.70;;;18.70;99.90;;;;;;4975803;28;20166;-78
2022/06/28 06:24:31;;;;;;;3.25;0.80;;;18.80;99.90;;;;;;4976823;28;20600;-78
2022/06/28 06:26:57;;;;;;;3.13;1.15;;;18.90;99.90;;;;;;4976795;28;20176;-79
2022/06/28 06:29:22;;;;;;;5.13;1.80;;;18.90;99.90;;;;;;4959162;28;20276;-78
2022/06/28 06:31:48;;;;;;;4.40;1.40;;;18.80;99.90;;;;;;4958707;28;20177;-80
2022/06/28 06:34:14;;;;;;;4.82;0.82;;;18.80;99.90;;;;;;4958183;28;20184;-79
2022/06/28 06:36:40;;;;;;;9.77;1.10;;;18.70;99.90;;;;;;4975570;28;20692;-90
2022/06/28 06:39:06;;;;;;;7.75;1.10;;;18.80;99.90;;;;;;4959460;28;20194;-81
2022/06/28 06:41:32;;;;;;;20.95;1.42;;;18.70;99.90;;;;;;4976476;28;20172;-81
2022/06/28 06:43:57;;;;;;;1.88;0.82;;;18.60;99.90;;;;;;4975856;28;20166;-82
2022/06/28 06:46:23;;;;;;;4.57;0.77;;;18.70;99.90;;;;;;4975506;28;20177;-79
2022/06/28 06:48:49;;;;;;;6.40;1.15;;;18.60;99.90;;;;;;4957752;28;20224;-79
2022/06/28 06:51:15;;;;;;;6.85;1.27;;;18.60;99.90;;;;;;4957991;28;20166;-79
2022/06/28 06:53:40;;;;;;;4.05;1.02;;;18.80;99.90;;;;;;4976308;28;20186;-78
2022/06/28 06:56:06;;;;;;;12.63;2.38;;;19.40;99.90;;;;;;4976429;28;20264;-78
2022/06/28 06:58:32;;;;;;;12.32;1.60;;;20.30;99.90;;;;;;4974692;28;20181;-79
2022/06/28 07:00:57;;;;;;;13.10;1.48;;;21.20;99.90;;;;;;4974926;28;20468;-81
2022/06/28 07:03:24;;;;;;;3.75;1.23;;;22.60;99.90;;;;;;4975230;28;20643;-81
2022/06/28 07:05:49;;;;;;;10.57;1.15;;;23.60;99.90;;;;;;4975571;28;20166;-89
2022/06/28 07:08:15;;;;;;;4.50;0.68;;;24.70;99.90;;;;;;4975264;28;20325;-86
2022/06/28 07:10:40;;;;;;;11.65;1.23;;;24.80;99.90;;;;;;4974700;28;20194;-80
2022/06/28 07:13:06;;;;;;;4.25;0.80;;;25.80;99.90;;;;;;4976006;28;20173;-83
2022/06/28 07:15:31;;;;;;;5.47;0.60;;;25.40;99.90;;;;;;4957267;28;20176;-82
2022/06/28 07:17:57;;;;;;;2.83;0.80;;;25.30;99.90;;;;;;4964954;28;20204;-85
2022/06/28 07:20:23;;;;;;;7.10;0.70;;;26.50;99.90;;;;;;4976266;28;20181;-87
2022/06/28 07:22:49;;;;;;;14.00;1.10;;;27.60;99.70;;;;;;4965173;28;20548;-80
2022/06/28 07:25:14;;;;;;;7.80;0.88;;;27.90;98.70;;;;;;4957098;28;20623;-81
2022/06/28 07:27:41;;;;;;;3.42;0.60;;;28.00;97.50;;;;;;4953899;28;20190;-81
2022/06/28 07:30:08;;;;;;;4.30;0.55;;;27.40;96.90;;;;;;4972362;28;20166;-81
2022/06/28 07:32:34;;;;;;;10.48;0.90;;;27.80;96.50;;;;;;4973404;28;20597;-81
2022/06/28 07:34:59;;;;;;;1.83;0.63;;;28.40;95.60;;;;;;4972666;28;20205;-81
2022/06/28 07:37:25;;;;;;;6.85;0.63;;;27.80;95.80;;;;;;4972741;28;20269;-82
2022/06/28 07:39:50;;;;;;;4.78;1.33;;;28.50;94.60;;;;;;4972476;28;20234;-83
2022/06/28 07:42:16;;;;;;;11.57;0.52;;;29.70;93.30;;;;;;4973196;28;20667;-86
2022/06/28 07:44:41;;;;;;;10.40;0.70;;;29.40;92.10;;;;;;4955466;28;20173;-82
2022/06/28 07:47:07;;;;;;;5.18;1.00;;;29.10;92.50;;;;;;4972082;28;20193;-83
2022/06/28 07:52:35;;;;;;;4.15;1.33;;;29.30;93.10;;;;;;4971931;28;21058;-83
2022/06/28 07:55:01;;;;;;;5.50;1.13;;;29.20;92.70;;;;;;4954198;28;20626;-84
2022/06/28 07:57:27;;;;;;;3.10;0.68;;;29.10;92.20;;;;;;4955373;28;20213;-82
2022/06/28 07:59:53;;;;;;;3.15;0.73;;;28.50;92.60;;;;;;4955075;28;20715;-83
2022/06/28 08:02:19;;;;;;;13.73;0.70;;;27.20;93.10;;;;;;4972970;28;20178;-84
2022/06/28 08:04:45;;;;;;;3.03;0.80;;;26.20;94.30;;;;;;4955880;28;20205;-83
2022/06/28 08:07:11;;;;;;;1.95;0.82;;;25.90;94.70;;;;;;4955295;28;20197;-82
2022/06/28 08:09:36;;;;;;;15.88;1.05;;;24.40;95.90;;;;;;4955056;28;20281;-82
2022/06/28 08:12:02;;;;;;;6.20;0.80;;;24.30;97.60;;;;;;4979042;28;20612;-81
2022/06/28 08:14:29;;;;;;;7.30;1.02;;;23.70;97.40;;;;;;4981920;28;20185;-82
2022/06/28 08:16:54;;;;;;;16.73;1.05;;;23.30;98.30;;;;;;4980954;28;20205;-82
2022/06/28 08:19:20;;;;;;;7.10;0.80;;;23.00;99.60;;;;;;4979835;28;20194;-82
2022/06/28 08:21:47;;;;;;;23.20;1.40;;;23.00;98.60;;;;;;4979999;28;20184;-87
2022/06/28 08:24:13;;;;;;;3.97;0.82;;;22.90;98.60;;;;;;4994091;28;20158;-85
2022/06/28 08:26:42;;;;;;;1.50;0.50;;;22.80;99.60;;;;;;4986853;28;20204;-85
2022/06/28 08:29:16;;;;;;;1.75;0.65;;;22.40;99.90;;;;;;4999753;28;20352;-85
2022/06/28 08:31:44;;;;;;;6.15;1.10;;;22.50;99.90;;;;;;4968340;28;20186;-86
2022/06/28 08:34:10;;;;;;;3.20;0.60;;;22.70;99.90;;;;;;4963815;28;20173;-86
2022/06/28 08:36:36;;;;;;;5.10;1.10;;;22.40;99.90;;;;;;4963229;28;20696;-85
2022/06/28 08:39:03;;;;;;;13.32;0.77;;;22.10;99.90;;;;;;4981576;28;20200;-86
2022/06/28 08:41:31;;;;;;;15.43;0.98;;;22.10;99.90;;;;;;4963440;28;20693;-85
2022/06/28 08:43:57;;;;;;;1.83;0.68;;;22.20;99.90;;;;;;4965216;28;20178;-85
2022/06/28 08:46:24;;;;;;;8.45;0.73;;;21.60;99.90;;;;;;4963252;28;20269;-87
2022/06/28 08:49:01;;;;;;;2.20;0.70;;;21.70;99.90;;;;;;4963376;28;20189;-88
2022/06/28 08:51:30;;;;;;;1.77;1.13;;;22.00;99.90;;;;;;4963811;28;20177;-87
2022/06/28 08:53:59;;;;;;;10.45;0.80;;;22.10;99.90;;;;;;4963320;28;20170;-86
2022/06/28 08:56:24;;;;;;;4.07;0.73;;;22.30;99.90;;;;;;4963566;28;20621;-87
2022/06/28 08:58:51;;;;;;;4.30;1.10;;;22.50;99.90;;;;;;4962565;28;20284;-87
2022/06/28 09:01:16;;;;;;;3.65;0.93;;;22.60;99.90;;;;;;4963592;28;20622;-86
2022/06/28 09:03:43;;;;;;;4.65;0.98;;;22.30;99.90;;;;;;4963056;28;20184;-85
2022/06/28 09:06:09;;;;;;;2.85;1.10;;;22.50;99.90;;;;;;4959815;28;20514;-84
2022/06/28 09:08:42;;;;;;;8.15;1.10;;;22.70;99.90;;;;;;4962057;28;20209;-83
2022/06/28 09:11:08;;;;;;;8.05;0.98;;;22.70;99.90;;;;;;4960720;28;20205;-84
2022/06/28 09:13:35;;;;;;;3.20;0.57;;;22.60;99.90;;;;;;4978882;28;20225;-83
2022/06/28 09:16:03;;;;;;;4.10;1.10;;;23.00;99.90;;;;;;4979343;28;20213;-84
2022/06/28 09:18:34;;;;;;;8.50;1.30;;;22.60;99.90;;;;;;4961459;28;20185;-86
2022/06/28 09:21:01;;;;;;;2.53;0.88;;;22.50;99.90;;;;;;4979265;28;20173;-85
2022/06/28 09:23:35;;;;;;;1.77;0.98;;;22.90;99.90;;;;;;4976823;28;20248;-87
2022/06/28 09:26:11;;;;;;;3.25;0.95;;;23.20;99.90;;;;;;4961078;28;20531;-87
2022/06/28 09:28:49;;;;;;;55.17;3.83;;;23.40;99.90;;;;;;4961317;28;20221;-88
2022/06/28 09:31:19;;;;;;;9.70;1.05;;;23.40;99.90;;;;;;5090675;23;20224;-90
2022/06/28 09:34:02;;;;;;;3.50;0.65;;;23.50;99.90;;;;;;5115244;23;20233;-88
2022/06/28 09:36:30;;;;;;;7.43;0.88;;;23.20;99.90;;;;;;5022167;23;20325;-87
2022/06/28 09:38:57;;;;;;;4.85;0.88;;;23.10;99.90;;;;;;4995934;28;20223;-85
2022/06/28 09:41:28;;;;;;;3.25;0.70;;;23.20;99.90;;;;;;4996431;28;20180;-87
2022/06/28 09:44:03;;;;;;;6.13;0.70;;;23.30;99.90;;;;;;5013607;28;20187;-89
2022/06/28 09:46:30;;;;;;;11.00;0.73;;;23.30;99.90;;;;;;5014018;28;20203;-87
2022/06/28 09:48:58;;;;;;;4.10;0.90;;;23.10;99.90;;;;;;5012721;28;20189;-85
2022/06/28 09:51:24;;;;;;;1.33;0.52;;;23.40;99.90;;;;;;5013662;28;20176;-86
2022/06/28 09:53:56;;;;;;;21.45;1.40;;;23.40;99.90;;;;;;4998561;28;20176;-86
2022/06/28 09:56:24;;;;;;;4.78;0.90;;;23.70;99.90;;;;;;5016895;28;20216;-90
2022/06/28 09:58:51;;;;;;;5.95;0.68;;;23.90;99.90;;;;;;5013191;28;20546;-91
2022/06/28 10:01:18;;;;;;;1.65;0.60;;;23.70;99.90;;;;;;5013185;28;20634;-90
2022/06/28 10:03:44;;;;;;;3.90;0.70;;;23.90;99.90;;;;;;5014314;28;20231;-91
2022/06/28 10:06:10;;;;;;;3.13;0.88;;;23.90;99.90;;;;;;5014246;28;20170;-92
2022/06/28 10:08:37;;;;;;;1.35;0.77;;;23.90;99.90;;;;;;5013921;28;20189;-90
2022/06/28 10:11:03;;;;;;;1.92;1.23;;;24.10;99.90;;;;;;5000062;28;20176;-92
2022/06/28 10:16:46;;;;;;;2.38;0.90;;;24.50;99.90;;;;;;5004948;28;20643;-87
2022/06/28 10:19:16;;;;;;;5.30;0.60;;;24.30;99.90;;;;;;5012569;28;20228;-87
2022/06/28 10:21:46;;;;;;;4.43;1.35;;;24.60;99.90;;;;;;5014327;28;20511;-88
2022/06/28 10:24:13;;;;;;;1.95;0.80;;;24.70;99.90;;;;;;4996783;28;20231;-87
2022/06/28 10:26:43;;;;;;;1.52;0.55;;;24.90;99.90;;;;;;5011266;28;20205;-84
2022/06/28 10:29:11;;;;;;;4.20;0.75;;;24.70;99.90;;;;;;4994373;28;20270;-85
2022/06/28 10:31:41;;;;;;;3.70;0.85;;;24.30;99.90;;;;;;5010985;28;20210;-85
2022/06/28 10:34:12;;;;;;;3.17;0.90;;;24.50;99.90;;;;;;5010639;28;20177;-88
2022/06/28 10:36:43;;;;;;;5.55;0.75;;;24.50;99.90;;;;;;5010720;28;20221;-88
2022/06/28 10:39:14;;;;;;;3.85;1.05;;;24.80;99.90;;;;;;4995253;28;20185;-88
2022/06/28 10:41:58;;;;;;;5.38;0.77;;;24.90;99.90;;;;;;5011230;28;20259;-84
2022/06/28 10:44:27;;;;;;;4.10;1.00;;;24.70;99.90;;;;;;5016809;28;20227;-86
2022/06/28 10:47:13;;;;;;;17.77;0.70;;;24.80;99.90;;;;;;5000777;28;20212;-87
2022/06/28 10:49:44;;;;;;;3.42;0.85;;;25.20;99.90;;;;;;4996423;28;20201;-87
2022/06/28 10:52:16;;;;;;;1.55;0.60;;;25.30;99.90;;;;;;5010423;28;20534;-83
2022/06/28 10:55:03;;;;;;;10.32;0.65;;;25.10;99.90;;;;;;4991128;28;20188;-81
2022/06/28 10:57:32;;;;;;;14.45;1.45;;;24.80;99.90;;;;;;4974893;28;20209;-81
2022/06/28 11:00:00;;;;;;;11.30;1.30;;;24.80;99.90;;;;;;4979884;28;20178;-81
2022/06/28 11:02:50;;;;;;;3.70;1.00;;;25.00;99.90;;;;;;4995672;28;20209;-80
2022/06/28 11:05:18;;;;;;;10.90;1.17;;;24.90;99.90;;;;;;5016770;28;20176;-82
2022/06/28 11:07:57;;;;;;;13.63;1.30;;;25.20;99.90;;;;;;5004475;28;20614;-82
2022/06/28 11:10:22;;;;;;;10.68;1.05;;;24.90;99.80;;;;;;4979016;28;20180;-81
2022/06/28 11:12:48;;;;;;;16.48;0.90;;;25.00;99.90;;;;;;4986651;28;20178;-82
2022/06/28 11:15:25;;;;;;;4.00;0.82;;;25.20;99.70;;;;;;4986755;28;20181;-82
2022/06/28 11:17:52;;;;;;;2.40;1.00;;;25.20;99.40;;;;;;4981838;28;20248;-82
2022/06/28 11:20:22;;;;;;;5.65;0.95;;;25.30;99.90;;;;;;4973706;28;20169;-83
2022/06/28 11:22:49;;;;;;;5.13;1.00;;;25.40;99.50;;;;;;4993167;28;20180;-82
2022/06/28 11:25:16;;;;;;;0.98;0.65;;;24.90;99.90;;;;;;4980360;28;20665;-83
2022/06/28 11:27:56;;;;;;;2.50;0.80;;;25.10;99.90;;;;;;4992230;28;20184;-81
2022/06/28 11:30:23;;;;;;;3.47;1.15;;;25.00;99.50;;;;;;4988314;28;20548;-83
2022/06/28 11:32:50;;;;;;;2.28;0.70;;;25.00;99.90;;;;;;4992173;28;20169;-82
2022/06/28 11:35:28;;;;;;;6.22;0.60;;;25.20;99.00;;;;;;4992605;28;20677;-82
2022/06/28 11:38:03;;;;;;;2.80;0.70;;;25.20;99.30;;;;;;4992659;28;20575;-82
2022/06/28 11:40:58;;;;;;;2.92;0.80;;;25.00;99.60;;;;;;4992805;28;20165;-81
2022/06/28 11:43:27;;;;;;;7.20;0.80;;;25.20;98.90;;;;;;4993256;28;20220;-81
2022/06/28 11:45:54;;;;;;;4.82;0.68;;;25.50;99.00;;;;;;4992138;28;20169;-83
2022/06/28 11:48:28;;;;;;;2.85;0.70;;;25.70;99.20;;;;;;4993882;28;20195;-81
2022/06/28 11:50:56;;;;;;;10.95;1.40;;;25.70;97.70;;;;;;4992372;28;20184;-81
2022/06/28 11:53:23;;;;;;;5.22;1.02;;;25.60;98.30;;;;;;4992762;28;20259;-83
2022/06/28 11:55:54;;;;;;;1.60;0.77;;;25.50;98.40;;;;;;4992780;28;20597;-82
2022/06/28 11:58:26;;;;;;;18.13;2.15;;;25.60;98.00;;;;;;4994377;28;20185;-81
2022/06/28 12:01:13;;;;;;;17.13;1.85;;;25.50;98.10;;;;;;4993400;28;20703;-82
2022/06/28 12:03:41;;;;;;;5.18;1.02;;;25.70;98.30;;;;;;4993935;28;20648;-83
2022/06/28 12:06:29;;;;;;;1.58;0.80;;;25.80;98.20;;;;;;4993588;28;20691;-82
2022/06/28 12:08:59;;;;;;;3.15;0.93;;;25.70;97.90;;;;;;4993360;28;20653;-82
2022/06/28 12:11:50;;;;;;;1.40;0.88;;;25.60;97.80;;;;;;4993602;28;20188;-82
2022/06/28 12:14:16;;;;;;;4.25;0.90;;;25.60;97.10;;;;;;4992087;28;20165;-83
2022/06/28 12:16:49;;;;;;;11.85;1.00;;;25.60;97.30;;;;;;4993947;28;20219;-81
2022/06/28 12:19:18;;;;;;;9.90;1.60;;;25.80;97.50;;;;;;4993416;28;20243;-82
2022/06/28 12:22:02;;;;;;;1.73;0.73;;;26.40;97.80;;;;;;4993776;28;20525;-82
2022/06/28 12:24:41;;;;;;;2.00;0.60;;;26.70;96.70;;;;;;5008784;28;20180;-81
2022/06/28 12:27:10;;;;;;;6.20;0.95;;;26.70;96.60;;;;;;4995845;28;20177;-83
2022/06/28 12:29:36;;;;;;;103.03;10.40;;;26.90;96.30;;;;;;4994720;28;20170;-82
2022/06/28 12:32:02;;;;;;;4.90;1.10;;;26.60;96.60;;;;;;4997952;28;20216;-83
2022/06/28 12:34:27;;;;;;;3.50;0.90;;;26.50;96.40;;;;;;4993419;28;20634;-83
2022/06/28 12:36:53;;;;;;;64.28;6.35;;;26.20;96.80;;;;;;5000359;28;20569;-83
2022/06/28 12:39:19;;;;;;;11.35;1.30;;;26.30;97.00;;;;;;4993649;28;20673;-82
2022/06/28 12:41:44;;;;;;;1.05;0.90;;;26.30;97.00;;;;;;4996134;28;20161;-82
2022/06/28 12:44:10;;;;;;;3.60;0.93;;;26.00;96.50;;;;;;4991699;28;20182;-83
2022/06/28 12:46:36;;;;;;;1.23;1.00;;;26.00;97.40;;;;;;4992066;28;20161;-83
2022/06/28 12:49:01;;;;;;;3.33;0.98;;;26.10;97.40;;;;;;4992010;28;20272;-83
2022/06/28 12:51:28;;;;;;;1.77;0.90;;;26.30;96.90;;;;;;4993581;28;20208;-81
2022/06/28 12:53:53;;;;;;;3.30;0.95;;;26.50;97.00;;;;;;4991646;28;20545;-82
2022/06/28 12:56:19;;;;;;;4.22;1.00;;;26.70;96.80;;;;;;4992403;28;20205;-81
2022/06/28 12:58:46;;;;;;;3.53;0.90;;;26.70;97.60;;;;;;4994855;28;20196;-84
2022/06/28 13:01:13;;;;;;;3.60;1.42;;;26.70;96.80;;;;;;4995632;28;20318;-83
2022/06/28 13:03:39;;;;;;;6.47;0.70;;;26.50;97.00;;;;;;4998023;28;20197;-87